Time;durP1;ratioP1;P1;durP2;ratioP2;P2;SDS_P1;SDS_P2;PMS_P1;PMS_P2;Temp;Humidity;BMP_temperature;BMP_pressure;BME280_temperature;BME280_humidity;BME280_pressure;Samples;Min_cycle;Max_cycle;Signal;HPM_P1;HPM_P2
2021/03/24 00:00:13;;;;;;;61.55;44.05;;;6.90;84.70;;;;;;4991055;28;20045;-48
2021/03/24 00:03:02;;;;;;;57.10;43.67;;;6.80;84.60;;;;;;4990936;28;20100;-45
2021/03/24 00:05:52;;;;;;;62.65;45.67;;;6.70;84.80;;;;;;4991494;28;20410;-50
2021/03/24 00:08:45;;;;;;;61.72;44.45;;;6.70;85.40;;;;;;4992163;28;20062;-47
2021/03/24 00:11:31;;;;;;;;;;;6.70;85.00;;;;;;4992486;28;20045;-50
2021/03/24 00:14:17;;;;;;;57.92;41.78;;;6.70;86.30;;;;;;4990927;28;19925;-51
2021/03/24 00:17:03;;;;;;;60.38;43.45;;;6.60;85.40;;;;;;4990588;28;20053;-46
2021/03/24 00:19:57;;;;;;;60.42;43.83;;;6.70;85.50;;;;;;4990244;28;20133;-48
2021/03/24 00:22:49;;;;;;;60.25;42.88;;;6.60;85.40;;;;;;4990017;28;20096;-46
2021/03/24 00:25:35;;;;;;;56.53;40.83;;;6.60;85.10;;;;;;4988870;28;20057;-50
2021/03/24 00:28:24;;;;;;;49.67;38.72;;;6.50;85.30;;;;;;4990567;28;20053;-48
2021/03/24 00:31:10;;;;;;;61.50;40.60;;;6.50;85.10;;;;;;4991249;28;20132;-49
2021/03/24 00:33:55;;;;;;;57.05;40.30;;;6.20;85.20;;;;;;4990852;28;20806;-50
2021/03/24 00:36:45;;;;;;;56.80;41.80;;;6.10;86.00;;;;;;4990159;28;20191;-49
2021/03/24 00:39:39;;;;;;;59.57;42.00;;;5.90;86.40;;;;;;4990073;28;20050;-47
2021/03/24 00:42:27;;;;;;;54.33;38.10;;;5.80;86.80;;;;;;4990902;28;20046;-50
2021/03/24 00:45:14;;;;;;;56.55;39.30;;;5.70;87.20;;;;;;4991323;28;20747;-45
2021/03/24 00:48:05;;;;;;;56.55;42.65;;;5.60;87.50;;;;;;4987798;28;20883;-50
2021/03/24 00:50:54;;;;;;;62.08;42.25;;;5.50;88.50;;;;;;4990797;28;20050;-47
2021/03/24 00:53:42;;;;;;;58.08;42.58;;;5.40;88.70;;;;;;4991080;28;20045;-48
2021/03/24 00:56:31;;;;;;;67.88;48.03;;;5.40;88.50;;;;;;4991618;28;20046;-46
2021/03/24 00:59:25;;;;;;;74.07;50.57;;;5.30;88.90;;;;;;4991146;28;20820;-48
2021/03/24 01:02:12;;;;;;;78.05;53.40;;;5.30;90.00;;;;;;4989256;28;20136;-48
2021/03/24 01:05:07;;;;;;;81.47;54.08;;;5.20;90.10;;;;;;4991217;28;20136;-49
2021/03/24 01:08:15;;;;;;;84.95;57.35;;;5.20;90.10;;;;;;4988864;28;20054;-49
2021/03/24 01:11:01;;;;;;;89.07;59.80;;;5.10;90.80;;;;;;4990749;28;20056;-52
2021/03/24 01:13:50;;;;;;;82.70;55.00;;;5.10;90.80;;;;;;4994279;28;20108;-52
2021/03/24 01:16:42;;;;;;;90.70;57.83;;;5.00;90.50;;;;;;5008036;28;20547;-48
2021/03/24 01:19:34;;;;;;;90.57;60.00;;;4.90;90.80;;;;;;4993885;28;20490;-48
2021/03/24 01:22:25;;;;;;;95.40;60.15;;;4.90;91.00;;;;;;4992095;28;20050;-49
2021/03/24 01:25:16;;;;;;;89.73;57.80;;;4.80;91.10;;;;;;4995597;28;20084;-48
2021/03/24 01:28:07;;;;;;;94.43;59.90;;;4.80;91.00;;;;;;4994216;28;20054;-48
2021/03/24 01:30:55;;;;;;;89.27;57.53;;;4.80;91.30;;;;;;4992371;28;20056;-47
2021/03/24 01:33:43;;;;;;;91.95;59.58;;;4.70;91.40;;;;;;4992421;28;20072;-47
2021/03/24 01:36:32;;;;;;;98.97;62.20;;;4.70;91.30;;;;;;4994030;28;20141;-45
2021/03/24 01:39:18;;;;;;;104.18;64.43;;;4.70;91.90;;;;;;4991654;28;20050;-47
2021/03/24 01:42:08;;;;;;;103.38;62.90;;;4.70;92.20;;;;;;4992206;28;20041;-49
2021/03/24 01:45:16;;;;;;;102.75;62.15;;;4.70;92.20;;;;;;4993522;28;20532;-48
2021/03/24 01:48:04;;;;;;;93.68;59.03;;;4.60;91.90;;;;;;4991302;28;20128;-50
2021/03/24 01:50:53;;;;;;;103.47;65.97;;;4.60;91.70;;;;;;4979741;28;20052;-49
2021/03/24 01:53:41;;;;;;;102.18;64.85;;;4.60;92.10;;;;;;4992526;28;20042;-48
2021/03/24 01:56:29;;;;;;;102.47;62.78;;;4.60;92.20;;;;;;4993055;28;20050;-48
2021/03/24 01:59:21;;;;;;;105.53;67.03;;;4.60;92.00;;;;;;4992760;28;20050;-47
2021/03/24 02:02:14;;;;;;;94.68;60.88;;;4.50;92.30;;;;;;4993860;28;20046;-45
2021/03/24 02:05:04;;;;;;;107.18;64.35;;;4.50;92.30;;;;;;4993970;28;20050;-48
2021/03/24 02:08:17;;;;;;;106.75;63.50;;;4.40;92.60;;;;;;4993155;28;20111;-46
2021/03/24 02:11:23;;;;;;;104.97;63.88;;;4.40;92.80;;;;;;4994064;28;20643;-46
2021/03/24 02:14:30;;;;;;;100.90;62.85;;;4.40;92.90;;;;;;4989138;28;20461;-48
2021/03/24 02:17:19;;;;;;;100.20;61.22;;;4.30;92.60;;;;;;4992802;28;20045;-49
2021/03/24 02:20:17;;;;;;;107.25;64.18;;;4.30;92.70;;;;;;4992654;28;20045;-49
2021/03/24 02:23:30;;;;;;;111.50;64.78;;;4.30;92.90;;;;;;4992137;28;20054;-49
2021/03/24 02:26:39;;;;;;;109.72;66.43;;;4.40;93.00;;;;;;4990882;28;20053;-47
2021/03/24 02:29:31;;;;;;;104.18;63.03;;;4.50;92.60;;;;;;4993184;28;20072;-48
2021/03/24 02:32:21;;;;;;;103.82;61.60;;;4.50;92.90;;;;;;4993382;28;20053;-45
2021/03/24 02:35:16;;;;;;;109.75;63.75;;;4.40;92.60;;;;;;4989085;28;20046;-46
2021/03/24 02:38:06;;;;;;;104.70;62.58;;;4.40;92.30;;;;;;4991129;28;21747;-45
2021/03/24 02:40:57;;;;;;;107.88;63.50;;;4.40;92.50;;;;;;4993102;28;20049;-47
2021/03/24 02:43:44;;;;;;;101.65;61.53;;;4.50;92.20;;;;;;4992736;28;20054;-47
2021/03/24 02:46:34;;;;;;;95.30;58.50;;;4.40;92.30;;;;;;4992490;28;20433;-46
2021/03/24 02:49:22;;;;;;;99.20;59.47;;;4.40;92.40;;;;;;4992045;28;20128;-48
2021/03/24 02:52:11;;;;;;;102.43;63.15;;;4.30;92.30;;;;;;4989672;28;20140;-47
2021/03/24 02:55:00;;;;;;;105.43;64.32;;;4.30;92.70;;;;;;4976258;28;20049;-46
2021/03/24 02:57:49;;;;;;;101.18;62.50;;;4.30;92.70;;;;;;4992248;28;20072;-47
2021/03/24 03:00:39;;;;;;;103.65;61.38;;;4.20;93.00;;;;;;4990102;28;20517;-48
2021/03/24 03:03:38;;;;;;;103.95;62.97;;;4.20;92.80;;;;;;4990761;28;20529;-46
2021/03/24 03:06:27;;;;;;;110.85;63.45;;;4.10;92.70;;;;;;4991132;28;20046;-45
2021/03/24 03:09:39;;;;;;;103.15;59.50;;;4.10;92.60;;;;;;4992862;28;20046;-45
2021/03/24 03:12:36;;;;;;;102.38;63.10;;;4.10;93.00;;;;;;4992771;28;20050;-47
2021/03/24 03:15:33;;;;;;;106.40;62.90;;;4.00;92.80;;;;;;4992773;28;20156;-45
2021/03/24 03:18:28;;;;;;;110.63;64.32;;;4.00;92.80;;;;;;4990143;28;20048;-47
2021/03/24 03:21:20;;;;;;;113.15;65.97;;;3.90;92.90;;;;;;4989911;28;20050;-46
2021/03/24 03:24:09;;;;;;;112.55;65.95;;;4.00;92.90;;;;;;4991865;28;20070;-46
2021/03/24 03:27:00;;;;;;;113.57;66.78;;;3.90;92.90;;;;;;4992310;28;20058;-48
2021/03/24 03:29:49;;;;;;;119.32;66.65;;;3.90;92.60;;;;;;4992361;28;20058;-49
2021/03/24 03:32:39;;;;;;;117.30;65.25;;;3.90;92.70;;;;;;4991581;28;20037;-46
2021/03/24 03:35:28;;;;;;;121.68;67.43;;;3.90;92.70;;;;;;4988264;28;20053;-49
2021/03/24 03:38:17;;;;;;;127.60;70.57;;;3.90;93.20;;;;;;4988687;28;20372;-45
2021/03/24 03:41:13;;;;;;;123.22;71.07;;;3.90;93.40;;;;;;4990800;28;20125;-47
2021/03/24 03:44:08;;;;;;;126.90;71.38;;;3.90;93.10;;;;;;4992020;28;20050;-47
2021/03/24 03:46:58;;;;;;;123.60;69.07;;;4.00;93.40;;;;;;4988260;28;20052;-46
2021/03/24 03:49:50;;;;;;;134.38;75.15;;;4.00;93.20;;;;;;4973390;28;20049;-55
2021/03/24 03:53:11;;;;;;;133.77;75.20;;;4.00;93.60;;;;;;4992520;28;20050;-50
2021/03/24 03:56:31;;;;;;;132.95;76.53;;;4.00;93.60;;;;;;4944845;29;20070;-48
2021/03/24 03:59:29;;;;;;;130.32;71.78;;;4.00;93.30;;;;;;4931775;29;20574;-44
2021/03/24 04:02:19;;;;;;;139.77;76.50;;;4.00;93.20;;;;;;4926311;29;20051;-45
2021/03/24 04:05:15;;;;;;;134.55;73.75;;;4.00;93.50;;;;;;4921587;29;20079;-50
2021/03/24 04:08:29;;;;;;;112.93;69.57;;;4.00;93.20;;;;;;4945061;29;20124;-46
2021/03/24 04:11:19;;;;;;;126.50;70.47;;;3.90;93.00;;;;;;4939427;29;20055;-46
2021/03/24 04:14:09;;;;;;;122.60;70.60;;;3.90;92.80;;;;;;4932095;29;20615;-45
2021/03/24 04:16:55;;;;;;;113.03;65.93;;;3.80;92.90;;;;;;4919310;29;20805;-46
2021/03/24 04:19:48;;;;;;;129.35;72.38;;;3.80;92.80;;;;;;4941927;29;20047;-50
2021/03/24 04:22:38;;;;;;;134.55;75.20;;;3.70;92.90;;;;;;4931024;29;20545;-48
2021/03/24 04:25:36;;;;;;;130.02;72.00;;;3.70;93.00;;;;;;4931590;29;20055;-51
2021/03/24 04:28:26;;;;;;;144.30;78.50;;;3.80;93.20;;;;;;4931028;29;20043;-49
2021/03/24 04:31:15;;;;;;;144.73;75.55;;;3.70;93.10;;;;;;4926485;29;20556;-48
2021/03/24 04:34:07;;;;;;;140.68;76.97;;;3.70;93.00;;;;;;4988349;28;20060;-46
2021/03/24 04:37:12;;;;;;;147.97;80.30;;;3.70;93.10;;;;;;4986456;28;20054;-48
2021/03/24 04:40:24;;;;;;;144.98;78.05;;;3.70;93.30;;;;;;4988309;28;20800;-46
2021/03/24 04:43:15;;;;;;;146.02;78.35;;;3.70;93.20;;;;;;4991273;28;20108;-46
2021/03/24 04:46:31;;;;;;;137.55;76.22;;;3.70;93.40;;;;;;5006569;28;20038;-47
2021/03/24 04:49:28;;;;;;;142.38;76.18;;;3.70;93.40;;;;;;4994838;28;20418;-49
2021/03/24 04:52:15;;;;;;;135.65;75.68;;;3.60;93.40;;;;;;4995195;28;20046;-45
2021/03/24 04:55:08;;;;;;;139.98;75.22;;;3.50;93.20;;;;;;4980616;28;20521;-46
2021/03/24 04:58:02;;;;;;;139.10;75.82;;;3.50;93.00;;;;;;4990401;28;20137;-46
2021/03/24 05:00:54;;;;;;;155.20;78.75;;;3.50;93.10;;;;;;4993940;28;20561;-46
2021/03/24 05:03:42;;;;;;;165.77;83.25;;;3.50;93.30;;;;;;4992856;28;20054;-47
2021/03/24 05:06:41;;;;;;;171.05;83.45;;;3.50;93.80;;;;;;4993969;28;20064;-47
2021/03/24 05:09:27;;;;;;;159.45;78.88;;;3.50;93.50;;;;;;4994238;28;20042;-46
2021/03/24 05:12:24;;;;;;;170.50;86.47;;;3.50;93.50;;;;;;4994458;28;20135;-46
2021/03/24 05:15:28;;;;;;;175.38;91.88;;;3.50;93.90;;;;;;4993191;28;20076;-48
2021/03/24 05:18:25;;;;;;;189.60;90.55;;;3.50;93.90;;;;;;4993908;28;20065;-46
2021/03/24 05:21:23;;;;;;;182.07;88.75;;;3.60;94.10;;;;;;4994129;28;20492;-50
2021/03/24 05:24:16;;;;;;;191.10;93.78;;;3.60;93.80;;;;;;4994323;28;20060;-48
2021/03/24 05:27:22;;;;;;;;;;;3.60;94.00;;;;;;4991545;28;20073;-47
2021/03/24 05:30:37;;;;;;;208.57;93.40;;;3.60;94.20;;;;;;4990338;28;19980;-47
2021/03/24 05:33:28;;;;;;;174.65;86.57;;;3.60;93.90;;;;;;4992786;28;20593;-49
2021/03/24 05:36:36;;;;;;;191.73;91.50;;;3.60;94.10;;;;;;4992627;28;20064;-48
2021/03/24 05:39:30;;;;;;;191.45;91.32;;;3.70;94.40;;;;;;4990216;28;20073;-49
2021/03/24 05:42:34;;;;;;;188.55;89.13;;;3.70;94.50;;;;;;4992781;28;20053;-46
2021/03/24 05:45:47;;;;;;;202.57;92.05;;;3.80;94.30;;;;;;4992878;28;20045;-46
2021/03/24 05:49:00;;;;;;;195.90;92.03;;;3.90;94.60;;;;;;4983067;28;20500;-47
2021/03/24 05:51:46;;;;;;;;;;;4.00;94.80;;;;;;4989028;28;20621;-49
2021/03/24 05:55:10;;;;;;;174.00;85.45;;;4.00;94.90;;;;;;4986456;28;19926;-46
2021/03/24 05:58:02;;;;;;;176.02;85.75;;;4.00;94.70;;;;;;4896000;29;20156;-48
2021/03/24 06:01:11;;;;;;;181.32;87.68;;;4.00;95.00;;;;;;4894744;29;20084;-48
2021/03/24 06:04:33;;;;;;;191.02;91.30;;;4.00;94.60;;;;;;4883517;29;20055;-48
2021/03/24 06:07:46;;;;;;;184.48;90.00;;;4.10;94.80;;;;;;4896244;29;20044;-48
2021/03/24 06:11:02;;;;;;;186.20;90.65;;;4.00;94.50;;;;;;4909621;29;20553;-48
2021/03/24 06:14:28;;;;;;;185.88;90.70;;;4.10;94.50;;;;;;4905236;29;20064;-48
2021/03/24 06:17:47;;;;;;;157.75;83.70;;;4.30;94.90;;;;;;4904195;29;20048;-53
2021/03/24 06:21:03;;;;;;;158.75;84.43;;;4.50;94.80;;;;;;4890579;29;20066;-49
2021/03/24 06:24:15;;;;;;;157.25;83.05;;;4.70;94.40;;;;;;4893409;29;20497;-45
2021/03/24 06:27:42;;;;;;;159.15;84.53;;;4.60;94.00;;;;;;4893169;29;20135;-53
2021/03/24 06:30:41;;;;;;;165.40;85.90;;;4.60;94.20;;;;;;4891286;29;20163;-52
2021/03/24 06:33:42;;;;;;;148.55;82.47;;;4.70;94.20;;;;;;4904927;28;20086;-50
2021/03/24 06:36:43;;;;;;;149.48;79.30;;;4.70;94.20;;;;;;4985224;28;20141;-49
2021/03/24 06:39:44;;;;;;;150.57;83.22;;;4.80;94.10;;;;;;4983382;28;20408;-45
2021/03/24 06:42:39;;;;;;;151.27;84.65;;;4.90;94.00;;;;;;4984813;28;20061;-49
2021/03/24 06:45:49;;;;;;;136.27;79.70;;;4.90;94.00;;;;;;4982572;28;20064;-46
2021/03/24 06:49:10;;;;;;;141.25;77.70;;;5.10;94.00;;;;;;4981972;28;20087;-46
2021/03/24 06:52:24;;;;;;;148.85;84.50;;;5.10;93.80;;;;;;4980084;28;20046;-50
2021/03/24 06:55:45;;;;;;;155.18;91.47;;;5.20;93.80;;;;;;4984073;28;20105;-50
2021/03/24 06:59:02;;;;;;;137.35;81.38;;;5.30;93.60;;;;;;4984207;28;20120;-48
2021/03/24 07:02:26;;;;;;;134.25;76.75;;;5.60;93.30;;;;;;4981460;28;20880;-45
2021/03/24 07:05:36;;;;;;;123.05;77.18;;;5.80;93.10;;;;;;4978953;28;20093;-44
2021/03/24 07:08:48;;;;;;;106.68;70.35;;;6.10;92.70;;;;;;4965985;28;20062;-47
2021/03/24 07:12:09;;;;;;;109.97;70.82;;;6.50;92.20;;;;;;4963022;28;20715;-46
2021/03/24 07:15:27;;;;;;;105.68;68.32;;;6.70;91.60;;;;;;4962978;28;20388;-47
2021/03/24 07:18:13;;;;;;;137.02;94.32;;;7.00;91.50;;;;;;4951681;28;20090;-54
2021/03/24 07:21:18;;;;;;;112.10;76.13;;;7.20;91.00;;;;;;4947518;28;20097;-50
2021/03/24 07:24:26;;;;;;;94.80;69.43;;;7.60;89.50;;;;;;4939003;28;20082;-51
2021/03/24 07:27:49;;;;;;;98.03;71.82;;;7.70;88.20;;;;;;4940704;28;20051;-52
2021/03/24 07:30:47;;;;;;;;;;;7.90;85.80;;;;;;4931912;29;20055;-51
2021/03/24 07:33:55;;;;;;;92.00;64.53;;;8.10;84.30;;;;;;4940128;28;19985;-47
2021/03/24 07:37:19;;;;;;;96.18;69.00;;;8.50;85.70;;;;;;4934108;28;20047;-49
2021/03/24 07:40:14;;;;;;;85.93;64.05;;;8.90;83.10;;;;;;4946059;28;21578;-49
2021/03/24 07:43:21;;;;;;;87.70;66.18;;;9.10;84.00;;;;;;4947248;28;20748;-50
2021/03/24 07:46:20;;;;;;;88.20;65.45;;;9.10;80.60;;;;;;4943841;28;20159;-46
2021/03/24 07:49:42;;;;;;;83.10;64.65;;;9.30;82.70;;;;;;4948301;28;20050;-45
2021/03/24 07:52:52;;;;;;;85.10;64.82;;;9.80;79.40;;;;;;4962500;28;20164;-45
2021/03/24 07:55:47;;;;;;;90.03;68.53;;;10.20;79.60;;;;;;4973036;28;20526;-47
2021/03/24 07:59:00;;;;;;;88.28;70.03;;;10.50;77.60;;;;;;4964406;28;20113;-47
2021/03/24 08:01:57;;;;;;;;;;;10.50;76.80;;;;;;4965239;28;20054;-41
2021/03/24 08:04:55;;;;;;;82.68;63.03;;;10.60;73.30;;;;;;4964436;28;19925;-43
2021/03/24 08:08:01;;;;;;;77.40;63.47;;;10.70;77.80;;;;;;4963423;28;20047;-45
2021/03/24 08:11:24;;;;;;;73.72;59.13;;;10.80;74.50;;;;;;4962345;28;20253;-43
2021/03/24 08:14:34;;;;;;;91.13;72.45;;;10.80;73.80;;;;;;4906767;29;20520;-43
2021/03/24 08:17:35;;;;;;;76.13;62.30;;;11.00;74.20;;;;;;4906164;29;20075;-46
2021/03/24 08:20:41;;;;;;;80.53;63.08;;;11.40;75.50;;;;;;4904917;29;20100;-43
2021/03/24 08:23:26;;;;;;;78.50;60.00;;;11.70;72.00;;;;;;4922466;29;20047;-42
2021/03/24 08:26:18;;;;;;;76.72;60.85;;;11.80;72.30;;;;;;4932770;29;20062;-47
2021/03/24 08:29:17;;;;;;;72.65;59.58;;;11.90;69.10;;;;;;4935985;28;20576;-45
2021/03/24 08:31:52;;;;;;;75.55;61.10;;;12.20;68.10;;;;;;4921286;29;20138;-43
2021/03/24 08:34:29;;;;;;;74.75;59.83;;;12.30;69.50;;;;;;4921355;29;20056;-42
2021/03/24 08:37:28;;;;;;;74.07;61.72;;;12.60;68.10;;;;;;4924730;29;20051;-47
2021/03/24 08:40:26;;;;;;;72.07;60.63;;;12.80;66.40;;;;;;4913255;29;20048;-46
2021/03/24 08:43:30;;;;;;;73.32;62.63;;;13.00;65.80;;;;;;4947691;28;20081;-42
2021/03/24 08:46:15;;;;;;;66.78;55.20;;;12.90;63.90;;;;;;4834849;29;20337;-41
2021/03/24 08:48:49;;;;;;;64.80;54.95;;;12.70;64.60;;;;;;4822504;29;20483;-41
2021/03/24 08:51:36;;;;;;;65.30;54.17;;;12.90;66.00;;;;;;4834210;29;20084;-42
2021/03/24 08:54:38;;;;;;;65.63;52.70;;;12.80;65.30;;;;;;4833652;29;20082;-48
2021/03/24 08:57:16;;;;;;;63.63;49.72;;;13.10;63.70;;;;;;4834854;29;20057;-48
2021/03/24 08:59:57;;;;;;;63.33;51.38;;;13.50;64.90;;;;;;4835488;29;20122;-47
2021/03/24 09:03:07;;;;;;;60.30;49.38;;;13.70;64.30;;;;;;4833437;29;20558;-51
2021/03/24 09:06:06;;;;;;;57.90;48.55;;;14.00;60.60;;;;;;4761797;30;20146;-49
2021/03/24 09:08:45;;;;;;;59.33;51.63;;;14.80;59.20;;;;;;4744918;30;20082;-51
2021/03/24 09:11:29;;;;;;;53.55;46.47;;;14.20;59.40;;;;;;4744400;30;20071;-53
2021/03/24 09:14:17;;;;;;;70.38;59.67;;;13.90;58.40;;;;;;4744244;30;20583;-51
2021/03/24 09:17:29;;;;;;;53.40;47.25;;;14.40;60.90;;;;;;4743963;30;20541;-52
2021/03/24 09:20:18;;;;;;;72.13;62.67;;;14.40;59.30;;;;;;4818721;29;20103;-50
2021/03/24 09:22:50;;;;;;;56.63;50.15;;;14.50;59.10;;;;;;4850602;29;20057;-50
2021/03/24 09:25:54;;;;;;;59.95;52.38;;;14.50;60.20;;;;;;4854267;29;20057;-49
2021/03/24 09:28:44;;;;;;;49.58;39.35;;;14.50;59.10;;;;;;4854030;29;20057;-51
2021/03/24 09:31:12;;;;;;;53.90;47.50;;;14.20;56.90;;;;;;4852599;29;20049;-52
2021/03/24 09:33:54;;;;;;;45.17;37.45;;;14.80;57.30;;;;;;4852025;29;20065;-48
2021/03/24 09:36:34;;;;;;;46.92;37.20;;;14.90;57.80;;;;;;4853153;29;20054;-48
2021/03/24 09:39:18;;;;;;;41.90;36.45;;;15.00;55.50;;;;;;4852278;29;20049;-51
2021/03/24 09:41:54;;;;;;;35.60;31.33;;;14.60;56.10;;;;;;4908209;28;20058;-47
2021/03/24 09:44:25;;;;;;;35.22;31.15;;;14.60;55.60;;;;;;4965659;28;20051;-47
2021/03/24 09:46:55;;;;;;;41.10;33.42;;;14.60;55.60;;;;;;4988960;28;20078;-50
2021/03/24 09:49:34;;;;;;;41.00;32.67;;;15.00;56.30;;;;;;5008931;28;20084;-51
2021/03/24 09:52:21;;;;;;;40.80;32.92;;;15.40;53.30;;;;;;5006237;28;20933;-47
2021/03/24 09:55:06;;;;;;;41.05;33.90;;;15.60;53.40;;;;;;5003363;28;20046;-47
2021/03/24 09:57:59;;;;;;;72.00;63.33;;;15.80;52.00;;;;;;5011459;28;20050;-49
2021/03/24 10:00:29;;;;;;;51.25;45.75;;;15.80;51.50;;;;;;4978062;28;20120;-51
2021/03/24 10:03:07;;;;;;;42.85;37.15;;;15.90;53.50;;;;;;5012397;28;20409;-50
2021/03/24 10:06:00;;;;;;;52.72;44.85;;;15.60;52.40;;;;;;5008099;28;20560;-45
2021/03/24 10:08:50;;;;;;;46.80;35.05;;;15.90;52.80;;;;;;5000027;28;20054;-54
2021/03/24 10:11:23;;;;;;;39.28;34.20;;;16.10;53.10;;;;;;5007251;28;20104;-55
2021/03/24 10:13:59;;;;;;;41.17;36.45;;;16.20;51.30;;;;;;5006331;28;20487;-47
2021/03/24 10:16:30;;;;;;;39.22;34.42;;;16.70;52.00;;;;;;5006800;28;20048;-47
2021/03/24 10:19:02;;;;;;;40.92;32.67;;;16.60;51.70;;;;;;5005915;28;20061;-45
2021/03/24 10:22:20;;;;;;;35.80;28.52;;;16.00;50.30;;;;;;5005308;28;20049;-50
2021/03/24 10:25:23;;;;;;;35.67;29.90;;;16.10;50.40;;;;;;4999365;28;20061;-48
2021/03/24 10:27:57;;;;;;;35.90;28.95;;;16.40;50.90;;;;;;5001233;28;20060;-50
2021/03/24 10:30:51;;;;;;;32.25;28.08;;;16.30;49.70;;;;;;5003996;28;20104;-47
2021/03/24 10:33:21;;;;;;;65.47;52.55;;;16.30;50.10;;;;;;4943733;28;20592;-47
2021/03/24 10:36:02;;;;;;;53.13;47.22;;;16.80;50.30;;;;;;4944826;29;20055;-46
2021/03/24 10:38:43;;;;;;;37.90;33.45;;;16.90;48.30;;;;;;4944073;29;20075;-46
2021/03/24 10:41:49;;;;;;;35.42;30.17;;;17.10;50.40;;;;;;4946135;28;20051;-47
2021/03/24 10:44:30;;;;;;;36.08;31.48;;;17.30;47.80;;;;;;4926902;29;20893;-47
2021/03/24 10:47:19;;;;;;;33.05;29.35;;;17.30;49.70;;;;;;4945933;28;20072;-47
2021/03/24 10:50:21;;;;;;;37.83;32.05;;;17.30;48.50;;;;;;4943312;29;20043;-50
2021/03/24 10:53:02;;;;;;;31.83;27.77;;;17.20;47.90;;;;;;4945695;29;20350;-43
2021/03/24 10:55:30;;;;;;;40.13;35.90;;;16.70;49.20;;;;;;4943568;28;20062;-45
2021/03/24 10:58:36;;;;;;;37.38;31.08;;;16.80;50.10;;;;;;4942544;29;20131;-49
2021/03/24 11:01:22;;;;;;;31.92;27.70;;;17.10;49.00;;;;;;4945454;28;20523;-49
2021/03/24 11:03:57;;;;;;;31.17;27.63;;;16.80;50.10;;;;;;4940162;29;20051;-44
2021/03/24 11:06:55;;;;;;;31.90;27.63;;;16.80;50.20;;;;;;4942697;29;20051;-47
2021/03/24 11:09:25;;;;;;;34.00;26.63;;;17.40;49.20;;;;;;4940179;28;20141;-45
2021/03/24 11:12:00;;;;;;;32.33;27.73;;;17.10;46.80;;;;;;4980981;28;20077;-48
2021/03/24 11:14:35;;;;;;;31.13;26.83;;;17.30;46.60;;;;;;4983466;28;20053;-46
2021/03/24 11:17:09;;;;;;;30.98;27.27;;;17.50;46.80;;;;;;4983891;28;20099;-45
2021/03/24 11:19:45;;;;;;;34.95;27.25;;;17.40;47.70;;;;;;4977427;28;20915;-48
2021/03/24 11:22:35;;;;;;;30.90;26.95;;;17.40;47.00;;;;;;4990256;28;20042;-49
2021/03/24 11:25:18;;;;;;;33.70;27.08;;;17.50;46.50;;;;;;4982052;28;20046;-48
2021/03/24 11:27:55;;;;;;;37.42;31.10;;;17.80;46.40;;;;;;4982572;28;20050;-48
2021/03/24 11:30:31;;;;;;;33.42;29.92;;;18.10;46.50;;;;;;4986867;28;20038;-51
2021/03/24 11:33:27;;;;;;;33.92;30.30;;;17.90;46.20;;;;;;4985500;28;20054;-57
2021/03/24 11:36:10;;;;;;;38.35;32.20;;;17.50;46.80;;;;;;4983424;28;20101;-52
2021/03/24 11:39:00;;;;;;;37.60;30.48;;;18.20;46.70;;;;;;4984910;28;20092;-48
2021/03/24 11:41:34;;;;;;;33.45;29.38;;;18.60;45.70;;;;;;4984456;28;20053;-45
2021/03/24 11:44:17;;;;;;;33.97;29.17;;;18.50;45.00;;;;;;4977191;28;20062;-48
2021/03/24 11:46:48;;;;;;;34.58;29.25;;;18.80;45.50;;;;;;4982069;28;20047;-44
2021/03/24 11:49:25;;;;;;;33.05;28.70;;;18.30;45.80;;;;;;4995372;28;20050;-44
2021/03/24 11:52:04;;;;;;;33.30;27.77;;;18.50;45.60;;;;;;4997829;28;20133;-45
2021/03/24 11:54:41;;;;;;;33.13;29.52;;;19.20;44.60;;;;;;4998082;28;20709;-44
2021/03/24 11:57:20;;;;;;;35.28;28.23;;;19.10;44.50;;;;;;4985677;28;20083;-45
2021/03/24 12:00:14;;;;;;;31.83;27.07;;;19.00;43.50;;;;;;5004307;28;20058;-45
2021/03/24 12:03:19;;;;;;;34.33;28.38;;;18.80;44.10;;;;;;5001476;28;20406;-45
2021/03/24 12:06:01;;;;;;;31.92;26.38;;;18.60;44.70;;;;;;4993549;28;20666;-43
2021/03/24 12:08:42;;;;;;;29.35;25.58;;;19.00;44.40;;;;;;5003953;28;20107;-45
2021/03/24 12:11:14;;;;;;;34.47;25.95;;;19.40;43.00;;;;;;4992608;28;20045;-47
2021/03/24 12:13:43;;;;;;;32.10;26.58;;;18.70;42.00;;;;;;5006357;28;20041;-47
2021/03/24 12:16:12;;;;;;;32.28;25.52;;;18.40;43.70;;;;;;5010003;28;20087;-48
2021/03/24 12:18:53;;;;;;;32.25;25.25;;;18.20;44.10;;;;;;5006289;28;20497;-47
2021/03/24 12:21:33;;;;;;;31.88;26.17;;;17.80;45.00;;;;;;4996814;28;20054;-48
2021/03/24 12:24:27;;;;;;;33.30;25.65;;;18.00;44.20;;;;;;4986101;28;20049;-48
2021/03/24 12:27:18;;;;;;;37.45;27.40;;;18.20;44.00;;;;;;4994328;28;20130;-44
2021/03/24 12:30:05;;;;;;;33.97;28.27;;;18.60;43.10;;;;;;5001058;28;20084;-48
2021/03/24 12:32:35;;;;;;;34.88;28.45;;;18.80;43.80;;;;;;5000931;28;20072;-45
2021/03/24 12:35:15;;;;;;;34.17;29.02;;;18.60;43.60;;;;;;5003328;28;20072;-45
2021/03/24 12:37:50;;;;;;;36.25;30.73;;;18.80;42.80;;;;;;4999888;28;20817;-45
2021/03/24 12:40:24;;;;;;;34.75;29.02;;;18.60;43.90;;;;;;5002921;28;20711;-47
2021/03/24 12:43:28;;;;;;;33.03;29.45;;;18.90;44.10;;;;;;4985305;28;20056;-47
2021/03/24 12:46:18;;;;;;;36.35;30.17;;;19.10;41.80;;;;;;4997728;28;20061;-47
2021/03/24 12:48:53;;;;;;;40.13;32.58;;;19.20;43.00;;;;;;5001614;28;20723;-45
2021/03/24 12:51:22;;;;;;;38.40;31.10;;;19.30;42.90;;;;;;5000633;28;20054;-47
2021/03/24 12:53:59;;;;;;;37.63;32.35;;;19.30;42.70;;;;;;5008459;28;20128;-45
2021/03/24 12:56:56;;;;;;;37.40;31.52;;;19.20;43.40;;;;;;5002247;28;20049;-49
2021/03/24 12:59:48;;;;;;;37.63;32.67;;;18.70;42.90;;;;;;4903788;29;20493;-49
2021/03/24 13:02:36;;;;;;;51.67;42.88;;;18.70;44.90;;;;;;4904544;29;20059;-46
2021/03/24 13:05:31;;;;;;;37.30;32.75;;;18.90;44.10;;;;;;4903389;29;20056;-48
2021/03/24 13:08:31;;;;;;;38.65;31.63;;;19.60;43.50;;;;;;4904308;29;20106;-51
2021/03/24 13:11:21;;;;;;;38.67;33.40;;;19.60;42.50;;;;;;4906208;29;20123;-49
2021/03/24 13:14:12;;;;;;;39.42;33.15;;;19.80;41.60;;;;;;4899729;29;20052;-53
2021/03/24 13:16:48;;;;;;;43.33;36.58;;;19.90;42.00;;;;;;4903252;29;20052;-47
2021/03/24 13:19:41;;;;;;;56.72;50.53;;;20.30;41.30;;;;;;4917934;29;20056;-49
2021/03/24 13:22:18;;;;;;;46.30;39.72;;;20.20;42.10;;;;;;4906561;29;20706;-48
2021/03/24 13:24:58;;;;;;;38.55;33.53;;;19.70;43.50;;;;;;4912331;29;20123;-50
2021/03/24 13:27:37;;;;;;;37.35;32.42;;;19.90;44.80;;;;;;4893275;29;20063;-48
2021/03/24 13:30:09;;;;;;;41.58;35.13;;;19.30;44.30;;;;;;4908424;29;20549;-47
2021/03/24 13:33:11;;;;;;;38.55;34.28;;;19.30;44.60;;;;;;4906375;29;20056;-48
2021/03/24 13:36:19;;;;;;;39.15;34.30;;;20.00;43.90;;;;;;4944662;28;20092;-48
2021/03/24 13:38:57;;;;;;;38.22;34.05;;;20.40;42.40;;;;;;5005268;28;20068;-52
2021/03/24 13:41:28;;;;;;;43.10;32.90;;;19.80;42.40;;;;;;4998146;28;20181;-49
2021/03/24 13:44:14;;;;;;;;;;;19.60;43.10;;;;;;5006313;28;20165;-49
2021/03/24 13:46:52;;;;;;;39.38;33.45;;;19.40;43.40;;;;;;5007567;28;19925;-49
2021/03/24 13:49:46;;;;;;;49.00;42.63;;;18.90;43.80;;;;;;5006839;28;20171;-47
2021/03/24 13:52:23;;;;;;;52.22;43.30;;;18.40;46.60;;;;;;5004323;28;20076;-51
2021/03/24 13:55:16;;;;;;;44.20;37.65;;;18.60;45.90;;;;;;5002916;28;20670;-48
2021/03/24 13:57:49;;;;;;;41.83;34.05;;;19.30;44.10;;;;;;5005139;28;20140;-50
2021/03/24 14:00:54;;;;;;;40.35;34.25;;;19.90;44.10;;;;;;5005696;28;20081;-49
2021/03/24 14:03:35;;;;;;;37.47;33.47;;;19.90;42.60;;;;;;4946246;28;20055;-46
2021/03/24 14:06:19;;;;;;;38.10;33.05;;;20.30;41.20;;;;;;4943663;28;20162;-46
2021/03/24 14:09:11;;;;;;;39.15;33.47;;;20.20;40.70;;;;;;4946143;28;20504;-48
2021/03/24 14:12:09;;;;;;;42.22;36.10;;;19.90;41.90;;;;;;4944255;28;20043;-49
2021/03/24 14:14:57;;;;;;;42.67;33.95;;;19.40;43.60;;;;;;4940008;29;20055;-46
2021/03/24 14:17:28;;;;;;;40.83;33.13;;;19.40;42.70;;;;;;4946662;28;20086;-50
2021/03/24 14:20:06;;;;;;;39.42;34.03;;;19.50;42.60;;;;;;4946365;28;20114;-52
2021/03/24 14:22:49;;;;;;;42.85;36.85;;;18.90;45.70;;;;;;4945391;29;20043;-53
2021/03/24 14:25:38;;;;;;;40.20;34.05;;;18.10;46.30;;;;;;4949528;28;20451;-49
2021/03/24 14:28:22;;;;;;;45.25;37.50;;;17.40;46.70;;;;;;4943819;29;20047;-49
2021/03/24 14:31:20;;;;;;;43.58;34.22;;;17.50;47.90;;;;;;4945995;29;20198;-49
2021/03/24 14:33:54;;;;;;;43.97;36.28;;;17.20;50.00;;;;;;4940809;28;20105;-47
2021/03/24 14:36:49;;;;;;;44.88;36.85;;;17.40;49.20;;;;;;4925116;29;20054;-49